首页
METAR-TAF:

METAR-TAF

机场 :

卡斯尔加, 不列颠哥伦比亚, 加拿大

纬度: 49-18N, 经度: 117-38W, 海拔: 495米

当前天气观测

该预报发布于27分钟前的16:00 UTC
风速7节,风向北转西北
温度 25°C
湿度 47%
气压 1019 hPa
能見度: 6.4公里
多云层高于3400英尺

METAR: CYCG 211600Z 34007KT 4SM FU BKN034 25/13 A3010 RMK FU3FU2 SLP183 DENSITY ALT 3000FT

时间: 09:27 (16:27 UTC)

预报

该预报发布于1小时和47分钟前的14:40 UTC
预报有效从21日的 15点(UTC)到 22日的 03点(UTC)
风速6节,风向
能見度: 10公里
多云层高于4000英尺
短暂存在
从 21日的 15点(UTC)到 22日的 03点(UTC)
能見度: 8.0公里

TAF: CYCG 211440Z 2115/2203 36006KT P6SM BKN040 TEMPO 2115/2203 5SM FU RMK NXT FCST BY 211900Z

超过4000个机场的气象观测和天气预报(METAR&TAF报告)。

可查询的气象台以黄色和红色小点在地图上表示。

将鼠标移到小点上方,可查看气象台名称。

然后点击查看天气观测和预报。

如需切换地图:点击带黑十字的绿色按钮放大地图;点击带横线的绿色按钮缩小地图;或者点击绿色箭头查看邻近地区的地图。


METAR-TAF: